createdAt,value
2018-02-23T00:01:11.667Z,1.00
2018-02-23T00:03:39.871Z,1.10
2018-02-23T00:06:07.378Z,1.00
2018-02-23T00:08:34.850Z,1.10
2018-02-23T00:11:02.358Z,1.00
2018-02-23T00:13:30.609Z,1.00
2018-02-23T00:15:58.098Z,0.90
2018-02-23T00:18:25.574Z,1.10
2018-02-23T00:20:53.843Z,0.90
2018-02-23T00:23:21.323Z,0.90
2018-02-23T00:25:48.835Z,1.00
2018-02-23T00:28:16.320Z,0.90
2018-02-23T00:30:43.820Z,0.90
2018-02-23T00:33:11.309Z,0.90
2018-02-23T00:35:38.809Z,0.90
2018-02-23T00:38:06.291Z,0.90
2018-02-23T00:40:33.787Z,0.80
2018-02-23T00:43:01.263Z,0.80
2018-02-23T00:45:28.768Z,0.80
2018-02-23T00:47:57.015Z,0.90
2018-02-23T00:50:24.508Z,0.80
2018-02-23T00:52:51.995Z,0.90
2018-02-23T00:55:20.265Z,0.80
2018-02-23T00:57:47.741Z,0.70
2018-02-23T01:00:15.294Z,0.90
2018-02-23T01:02:42.727Z,0.90
2018-02-23T01:05:10.987Z,0.80
2018-02-23T01:07:39.249Z,0.80
2018-02-23T01:10:06.755Z,0.70
2018-02-23T01:12:34.249Z,0.70
2018-02-23T01:15:02.520Z,0.70
2018-02-23T01:17:30.015Z,0.60
2018-02-23T01:19:57.515Z,0.70
2018-02-23T01:22:24.987Z,0.60
2018-02-23T01:24:53.462Z,0.70
2018-02-23T01:27:20.934Z,0.70
2018-02-23T01:29:48.438Z,0.70
2018-02-23T01:32:16.685Z,0.60
2018-02-23T01:34:44.172Z,0.50
2018-02-23T01:37:11.680Z,0.50
2018-02-23T01:39:39.923Z,0.60
2018-02-23T01:42:07.419Z,0.50
2018-02-23T01:44:34.888Z,0.50
2018-02-23T01:47:13.036Z,0.50
2018-02-23T01:49:40.522Z,0.40
2018-02-23T01:52:08.023Z,0.40
2018-02-23T01:54:35.505Z,0.40
2018-02-23T01:57:02.999Z,0.40
2018-02-23T01:59:31.244Z,0.50
2018-02-23T02:01:58.739Z,0.40
2018-02-23T02:04:26.220Z,0.40
2018-02-23T02:06:53.728Z,0.40
2018-02-23T02:09:21.207Z,0.40
2018-02-23T02:11:48.744Z,0.30
2018-02-23T02:14:16.987Z,0.40
2018-02-23T02:16:44.483Z,0.30
2018-02-23T02:19:11.962Z,0.40
2018-02-23T02:21:40.219Z,0.30
2018-02-23T02:24:07.704Z,0.30
2018-02-23T02:26:35.221Z,0.30
2018-02-23T02:29:02.708Z,0.30
2018-02-23T02:31:30.203Z,0.20
2018-02-23T02:33:57.692Z,0.20
2018-02-23T02:36:25.210Z,0.30
2018-02-23T02:38:52.697Z,0.20
2018-02-23T02:41:20.204Z,0.20
2018-02-23T02:43:48.465Z,0.10
2018-02-23T02:46:15.976Z,0.10
2018-02-23T02:48:44.228Z,0.10
2018-02-23T02:51:11.737Z,0.10
2018-02-23T02:53:39.993Z,0.10
2018-02-23T02:56:07.505Z,0.10
2018-02-23T02:58:35.002Z,0.10
2018-02-23T03:01:02.513Z,0.00
2018-02-23T03:03:30.005Z,0.00
2018-02-23T03:06:07.962Z,0.10
2018-02-23T03:08:35.458Z,0.00
2018-02-23T03:11:02.972Z,0.10
2018-02-23T03:13:31.227Z,0.00
2018-02-23T03:15:58.740Z,-0.10
2018-02-23T03:18:26.229Z,0.00
2018-02-23T03:20:53.737Z,0.00
2018-02-23T03:23:21.226Z,0.00
2018-02-23T03:25:49.504Z,-0.10
2018-02-23T03:28:16.994Z,-0.10
2018-02-23T03:30:45.282Z,-0.10
2018-02-23T03:33:12.778Z,-0.20
2018-02-23T03:35:40.292Z,-0.10
2018-02-23T03:38:07.788Z,-0.20
2018-02-23T03:40:36.074Z,-0.20
2018-02-23T03:43:04.330Z,-0.20
2018-02-23T03:45:31.839Z,-0.20
2018-02-23T03:48:00.102Z,-0.20
2018-02-23T03:50:27.621Z,-0.30
2018-02-23T03:52:55.113Z,-0.20
2018-02-23T03:55:22.627Z,-0.20
2018-02-23T03:57:50.880Z,-0.30
2018-02-23T04:00:21.844Z,-0.30
2018-02-23T04:02:49.341Z,-0.30
2018-02-23T04:05:17.621Z,-0.30
2018-02-23T04:07:45.900Z,-0.40
2018-02-23T04:10:13.392Z,-0.40
2018-02-23T04:12:41.669Z,-0.30
2018-02-23T04:15:09.170Z,-0.40
2018-02-23T04:17:36.693Z,-0.30
2018-02-23T04:20:04.192Z,-0.40
2018-02-23T04:22:32.467Z,-0.50
2018-02-23T04:24:59.961Z,-0.50
2018-02-23T04:27:27.474Z,-0.50
2018-02-23T04:29:54.969Z,-0.50
2018-02-23T04:32:22.493Z,-0.50
2018-02-23T04:34:49.989Z,-0.50
2018-02-23T04:37:17.501Z,-0.50
2018-02-23T04:39:45.001Z,-0.50
2018-02-23T04:42:12.513Z,-0.40
2018-02-23T04:44:40.000Z,-0.40
2018-02-23T04:47:07.517Z,-0.50
2018-02-23T04:49:35.008Z,-0.60
2018-02-23T04:52:02.529Z,-0.50
2018-02-23T04:54:30.030Z,-0.50
2018-02-23T04:56:57.545Z,-0.60
2018-02-23T04:59:25.902Z,-0.60
2018-02-23T05:01:53.416Z,-0.60
2018-02-23T05:04:20.906Z,-0.60
2018-02-23T05:06:49.190Z,-0.70
2018-02-23T05:09:17.453Z,-0.70
2018-02-23T05:11:44.968Z,-0.80
2018-02-23T05:14:12.456Z,-0.70
2018-02-23T05:16:39.965Z,-0.80
2018-02-23T05:19:07.455Z,-0.80
2018-02-23T05:21:35.745Z,-0.70
2018-02-23T05:24:03.287Z,-0.80
2018-02-23T05:26:30.756Z,-0.70
2018-02-23T05:28:58.248Z,-0.80
2018-02-23T05:31:26.526Z,-0.80
2018-02-23T05:33:54.028Z,-0.90
2018-02-23T05:36:21.537Z,-0.80
2018-02-23T05:38:49.034Z,-0.80
2018-02-23T05:41:16.550Z,-0.90
2018-02-23T05:43:44.050Z,-0.90
2018-02-23T05:46:11.566Z,-0.90
2018-02-23T05:48:39.820Z,-1.00
2018-02-23T05:51:07.341Z,-1.00
2018-02-23T05:53:34.843Z,-1.00
2018-02-23T05:56:02.369Z,-1.00
2018-02-23T05:58:30.629Z,-1.00
2018-02-23T06:00:58.148Z,-1.00
2018-02-23T06:03:25.650Z,-1.00
2018-02-23T06:05:53.170Z,-1.00
2018-02-23T06:08:21.428Z,-1.00
2018-02-23T06:10:48.941Z,-1.10
2018-02-23T06:13:16.467Z,-1.00
2018-02-23T06:15:49.673Z,-1.10
2018-02-23T06:18:22.789Z,-1.10
2018-02-23T06:20:50.289Z,-1.10
2018-02-23T06:23:17.804Z,-1.10
2018-02-23T06:25:45.301Z,-1.10
2018-02-23T06:28:13.583Z,-1.10
2018-02-23T06:30:41.077Z,-1.20
2018-02-23T06:33:10.561Z,-1.20
2018-02-23T06:35:38.060Z,-1.20
2018-02-23T06:38:06.336Z,-1.30
2018-02-23T06:40:33.838Z,-1.30
2018-02-23T06:43:01.352Z,-1.20
2018-02-23T06:45:28.848Z,-1.20
2018-02-23T06:47:56.364Z,-1.30
2018-02-23T06:50:23.869Z,-1.30
2018-02-23T06:52:51.381Z,-1.30
2018-02-23T06:55:18.877Z,-1.30
2018-02-23T06:57:46.394Z,-1.30
2018-02-23T07:00:13.888Z,-1.20
2018-02-23T07:02:41.414Z,-1.10
2018-02-23T07:05:08.916Z,-1.20
2018-02-23T07:07:37.201Z,-1.30
2018-02-23T07:10:05.456Z,-1.20
2018-02-23T07:12:32.964Z,-1.30
2018-02-23T07:15:01.224Z,-1.00
2018-02-23T07:17:28.746Z,-1.10
2018-02-23T07:19:56.253Z,-0.90
2018-02-23T07:22:23.768Z,-0.80
2018-02-23T07:24:52.037Z,-0.70
2018-02-23T07:27:19.578Z,-0.70
2018-02-23T07:29:47.069Z,-0.50
2018-02-23T07:32:14.588Z,-0.40
2018-02-23T07:34:42.097Z,-0.30
2018-02-23T07:37:09.622Z,-0.20
2018-02-23T07:39:37.185Z,-0.20
2018-02-23T07:42:05.472Z,-0.10
2018-02-23T07:44:33.729Z,0.00
2018-02-23T07:47:01.217Z,0.00
2018-02-23T07:49:28.732Z,0.10
2018-02-23T07:51:56.228Z,0.20
2018-02-23T07:54:23.731Z,0.30
2018-02-23T07:56:51.989Z,0.40
2018-02-23T07:59:19.506Z,0.40
2018-02-23T08:01:47.761Z,0.60
2018-02-23T08:04:15.275Z,0.60
2018-02-23T08:06:42.846Z,0.70
2018-02-23T08:09:10.382Z,0.80
2018-02-23T08:11:37.886Z,0.90
2018-02-23T08:14:20.480Z,1.00
2018-02-23T08:16:48.755Z,1.10
2018-02-23T08:19:16.261Z,1.10
2018-02-23T08:21:44.519Z,1.30
2018-02-23T08:24:12.045Z,1.20
2018-02-23T08:26:39.545Z,1.30
2018-02-23T08:29:07.032Z,1.40
2018-02-23T08:31:34.540Z,1.50
2018-02-23T08:34:02.041Z,1.60
2018-02-23T08:36:29.548Z,1.80
2018-02-23T08:38:57.037Z,1.90
2018-02-23T08:41:25.324Z,2.20
2018-02-23T08:43:53.580Z,2.20
2018-02-23T08:46:21.115Z,2.20
2018-02-23T08:48:48.614Z,2.20
2018-02-23T08:51:16.120Z,2.30
2018-02-23T08:53:45.386Z,2.60
2018-02-23T08:56:12.904Z,2.50
2018-02-23T08:58:41.163Z,2.80
2018-02-23T09:01:08.676Z,2.70
2018-02-23T09:03:36.164Z,2.80
2018-02-23T09:06:03.681Z,2.80
2018-02-23T09:08:31.181Z,2.90
2018-02-23T09:10:59.471Z,2.90
2018-02-23T09:13:27.732Z,3.00
2018-02-23T09:15:55.224Z,3.00
2018-02-23T09:18:23.501Z,2.90
2018-02-23T09:20:50.990Z,2.80
2018-02-23T09:23:18.517Z,3.00
2018-02-23T09:25:46.012Z,3.00
2018-02-23T09:28:14.289Z,3.10
2018-02-23T09:30:41.794Z,3.10
2018-02-23T09:33:09.447Z,3.10
2018-02-23T09:35:53.507Z,3.20
2018-02-23T09:38:21.790Z,3.40
2018-02-23T09:40:49.280Z,3.30
2018-02-23T09:43:17.565Z,3.50
2018-02-23T09:45:49.032Z,3.60
2018-02-23T09:48:16.585Z,3.50
2018-02-23T09:50:44.839Z,3.80
2018-02-23T09:53:12.357Z,3.70
2018-02-23T09:55:40.612Z,4.00
2018-02-23T09:58:08.121Z,3.90
2018-02-23T10:00:41.850Z,4.10
2018-02-23T10:03:09.362Z,4.10
2018-02-23T10:05:36.860Z,3.90
2018-02-23T10:08:04.372Z,3.90
2018-02-23T10:10:32.632Z,4.20
2018-02-23T10:13:00.903Z,4.30
2018-02-23T10:15:28.407Z,4.20
2018-02-23T10:17:55.913Z,4.40
2018-02-23T10:20:23.409Z,4.50
2018-02-23T10:22:50.929Z,4.50
2018-02-23T10:25:19.187Z,4.70
2018-02-23T10:27:47.525Z,4.80
2018-02-23T10:30:15.790Z,4.80
2018-02-23T10:32:43.358Z,4.70
2018-02-23T10:35:10.829Z,4.80
2018-02-23T10:37:38.341Z,4.90
2018-02-23T10:40:05.828Z,4.90
2018-02-23T10:42:33.348Z,4.90
2018-02-23T10:45:00.837Z,4.90
2018-02-23T10:47:28.358Z,5.00
2018-02-23T10:49:56.611Z,5.20
2018-02-23T10:52:24.123Z,5.10
2018-02-23T10:54:52.382Z,5.40
2018-02-23T10:57:19.905Z,5.40
2018-02-23T10:59:47.396Z,5.40
2018-02-23T11:02:14.915Z,5.50
2018-02-23T11:04:42.434Z,5.50
2018-02-23T11:07:09.929Z,5.50
2018-02-23T11:09:37.454Z,5.40
2018-02-23T11:12:04.953Z,5.30
2018-02-23T11:14:32.484Z,5.40
2018-02-23T11:17:00.745Z,5.60
2018-02-23T11:19:28.260Z,5.50
2018-02-23T11:22:01.182Z,5.70
2018-02-23T11:24:28.709Z,5.60
2018-02-23T11:26:56.209Z,5.50
2018-02-23T11:29:23.729Z,5.50
2018-02-23T11:31:51.229Z,5.50
2018-02-23T11:34:18.747Z,5.40
2018-02-23T11:36:46.245Z,5.40
2018-02-23T11:39:14.538Z,5.50
2018-02-23T11:41:42.798Z,5.60
2018-02-23T11:44:10.308Z,5.60
2018-02-23T11:46:38.574Z,5.50
2018-02-23T11:49:06.096Z,5.50
2018-02-23T11:51:33.592Z,5.50
2018-02-23T11:54:01.105Z,5.60
2018-02-23T11:56:29.358Z,5.70
2018-02-23T11:58:56.895Z,5.70
2018-02-23T12:01:24.384Z,5.70
2018-02-23T12:03:51.896Z,5.80
2018-02-23T12:06:20.158Z,5.70
2018-02-23T12:08:47.681Z,5.70
2018-02-23T12:11:15.186Z,5.70
2018-02-23T12:13:42.704Z,5.70
2018-02-23T12:16:12.880Z,5.50
2018-02-23T12:18:40.388Z,5.50
2018-02-23T12:21:07.904Z,5.60
2018-02-23T12:23:35.425Z,5.70
2018-02-23T12:26:02.923Z,5.70
2018-02-23T12:28:30.433Z,5.80
2018-02-23T12:30:57.925Z,5.70
2018-02-23T12:33:25.442Z,5.50
2018-02-23T12:35:52.942Z,5.50
2018-02-23T12:38:20.437Z,5.50
2018-02-23T12:40:47.949Z,5.50
2018-02-23T12:43:15.440Z,5.40
2018-02-23T12:45:43.741Z,5.30
2018-02-23T12:48:11.242Z,5.30
2018-02-23T12:50:38.761Z,5.30
2018-02-23T12:53:06.254Z,5.30
2018-02-23T12:55:33.769Z,5.30
2018-02-23T12:58:02.033Z,5.40
2018-02-23T13:00:29.549Z,5.40
2018-02-23T13:02:57.040Z,5.40
2018-02-23T13:05:24.553Z,5.40
2018-02-23T13:07:52.048Z,5.40
2018-02-23T13:10:20.332Z,5.30
2018-02-23T13:12:48.589Z,5.30
2018-02-23T13:15:18.909Z,5.20
2018-02-23T13:17:46.406Z,5.40
2018-02-23T13:20:13.925Z,5.30
2018-02-23T13:22:41.412Z,5.20
2018-02-23T13:25:08.931Z,5.20
2018-02-23T13:27:36.432Z,5.20
2018-02-23T13:30:06.000Z,5.20
2018-02-23T13:32:33.497Z,5.20
2018-02-23T13:35:01.782Z,5.30
2018-02-23T13:37:30.049Z,5.30
2018-02-23T13:39:57.564Z,5.30
2018-02-23T13:42:26.921Z,5.30
2018-02-23T13:44:54.450Z,5.30
2018-02-23T13:47:21.944Z,5.30
2018-02-23T13:49:49.465Z,5.20
2018-02-23T13:52:17.733Z,5.30
2018-02-23T13:54:45.273Z,5.20
2018-02-23T13:57:12.805Z,5.30
2018-02-23T13:59:40.336Z,5.20
2018-02-23T14:02:07.842Z,5.20
2018-02-23T14:04:36.127Z,5.20
2018-02-23T14:07:09.259Z,5.20
2018-02-23T14:09:36.781Z,5.20
2018-02-23T14:12:05.069Z,5.20
2018-02-23T14:14:32.594Z,5.20
2018-02-23T14:17:00.092Z,5.30
2018-02-23T14:19:27.627Z,5.20
2018-02-23T14:21:55.124Z,5.20
2018-02-23T14:24:22.653Z,5.20
2018-02-23T14:26:50.978Z,5.10
2018-02-23T14:29:18.514Z,5.10
2018-02-23T14:31:46.020Z,5.00
2018-02-23T14:34:13.535Z,5.00
2018-02-23T14:36:41.037Z,4.90
2018-02-23T14:39:08.553Z,4.90
2018-02-23T14:41:36.057Z,5.00
2018-02-23T14:44:04.346Z,4.90
2018-02-23T14:46:32.608Z,4.80
2018-02-23T14:49:22.961Z,4.80
2018-02-23T14:51:50.458Z,4.70
2018-02-23T14:54:17.984Z,4.70
2018-02-23T14:56:46.255Z,4.80
2018-02-23T14:59:13.761Z,4.70
2018-02-23T15:01:41.280Z,4.70
2018-02-23T15:04:08.780Z,4.60
2018-02-23T15:06:38.068Z,4.70
2018-02-23T15:09:05.557Z,4.70
2018-02-23T15:11:33.078Z,4.80
2018-02-23T15:14:00.578Z,4.80
2018-02-23T15:16:28.110Z,4.70
2018-02-23T15:18:55.613Z,4.70
2018-02-23T15:21:23.129Z,4.70
2018-02-23T15:23:51.391Z,4.60
2018-02-23T15:26:18.922Z,4.50
2018-02-23T15:28:46.420Z,4.50
2018-02-23T15:31:25.765Z,4.50
2018-02-23T15:33:53.266Z,4.40
2018-02-23T15:36:28.482Z,4.40
2018-02-23T15:39:06.148Z,4.40
2018-02-23T15:41:33.665Z,4.40
2018-02-23T15:44:01.161Z,4.30
2018-02-23T15:46:28.688Z,4.30
2018-02-23T15:49:01.776Z,4.30
2018-02-23T15:51:34.922Z,4.30
2018-02-23T15:54:02.433Z,4.30
2018-02-23T15:56:29.954Z,4.20
2018-02-23T15:58:57.450Z,4.20
2018-02-23T16:01:24.971Z,4.10
2018-02-23T16:03:52.496Z,4.00
2018-02-23T16:06:20.772Z,4.00
2018-02-23T16:08:48.264Z,3.90
2018-02-23T16:11:16.541Z,3.90
2018-02-23T16:13:44.812Z,3.90
2018-02-23T16:16:13.115Z,3.90
2018-02-23T16:18:41.393Z,3.90
2018-02-23T16:21:08.919Z,3.90
2018-02-23T16:23:36.433Z,3.90
2018-02-23T16:26:03.947Z,3.90
2018-02-23T16:28:31.457Z,3.80
2018-02-23T16:30:58.989Z,3.70
2018-02-23T16:33:26.484Z,3.70
2018-02-23T16:35:54.008Z,3.70
2018-02-23T16:38:21.519Z,3.70
2018-02-23T16:40:49.032Z,3.60
2018-02-23T16:46:10.609Z,3.60
2018-02-23T16:48:38.116Z,3.50
2018-02-23T16:51:05.638Z,3.60
2018-02-23T16:53:33.130Z,3.60
2018-02-23T16:56:01.413Z,3.50
2018-02-23T16:58:29.677Z,3.50
2018-02-23T17:00:57.189Z,3.50
2018-02-23T17:03:24.688Z,3.50
2018-02-23T17:05:52.208Z,3.30
2018-02-23T17:08:19.701Z,3.30
2018-02-23T17:10:47.232Z,3.30
2018-02-23T17:13:14.738Z,3.40
2018-02-23T17:15:42.270Z,3.40
2018-02-23T17:18:09.774Z,3.30
2018-02-23T17:20:38.066Z,3.20
2018-02-23T17:23:06.320Z,3.20
2018-02-23T17:25:33.837Z,3.10
2018-02-23T17:28:01.332Z,3.10
2018-02-23T17:30:28.845Z,3.10
2018-02-23T17:32:56.339Z,3.10
2018-02-23T17:35:24.619Z,3.10
2018-02-23T17:37:52.881Z,3.00
2018-02-23T17:40:20.405Z,3.00
2018-02-23T17:42:47.901Z,2.90
2018-02-23T17:45:15.421Z,3.00
2018-02-23T17:47:42.916Z,2.90
2018-02-23T17:50:10.424Z,2.90
2018-02-23T17:52:37.921Z,2.90
2018-02-23T17:55:06.217Z,2.80
2018-02-23T17:57:34.487Z,2.80
2018-02-23T18:00:01.976Z,2.70
2018-02-23T18:02:30.261Z,2.80
2018-02-23T18:04:58.525Z,2.70
2018-02-23T18:07:26.046Z,2.70
2018-02-23T18:09:53.552Z,2.70
2018-02-23T18:12:21.076Z,2.60
2018-02-23T18:14:48.574Z,2.60
2018-02-23T18:17:16.094Z,2.60
2018-02-23T18:19:44.363Z,2.50
2018-02-23T18:22:11.885Z,2.50
2018-02-23T18:24:39.390Z,2.50
2018-02-23T18:27:06.917Z,2.40
2018-02-23T18:29:34.452Z,2.40
2018-02-23T18:32:02.000Z,2.30
2018-02-23T18:34:29.528Z,2.30
2018-02-23T18:36:57.064Z,2.30
2018-02-23T18:39:24.578Z,2.30
2018-02-23T18:41:52.105Z,2.30
2018-02-23T18:44:19.599Z,2.30
2018-02-23T18:46:48.870Z,2.30
2018-02-23T18:49:16.412Z,2.20
2018-02-23T18:51:44.669Z,2.30
2018-02-23T18:54:12.944Z,2.20
2018-02-23T18:56:40.441Z,2.20
2018-02-23T18:59:07.980Z,2.20
2018-02-23T19:01:35.487Z,2.10
2018-02-23T19:04:03.017Z,2.10
2018-02-23T19:06:30.524Z,2.10
2018-02-23T19:08:58.058Z,2.10
2018-02-23T19:11:25.564Z,2.10
2018-02-23T19:13:53.082Z,2.00
2018-02-23T19:16:20.592Z,2.00
2018-02-23T19:18:48.879Z,2.00
2018-02-23T19:21:16.383Z,1.90
2018-02-23T19:23:43.906Z,2.00
2018-02-23T19:26:12.215Z,1.90
2018-02-23T19:28:40.510Z,1.80
2018-02-23T19:31:08.089Z,1.80
2018-02-23T19:33:35.589Z,1.80
2018-02-23T19:36:03.112Z,1.70
2018-02-23T19:38:31.386Z,1.70
2018-02-23T19:40:59.769Z,1.70
2018-02-23T19:43:27.265Z,1.60
2018-02-23T19:45:55.549Z,1.70
2018-02-23T19:48:23.833Z,1.60
2018-02-23T19:50:52.130Z,1.70
2018-02-23T19:53:20.389Z,1.70
2018-02-23T19:55:47.914Z,1.60
2018-02-23T19:58:15.446Z,1.60
2018-02-23T20:00:42.974Z,1.60
2018-02-23T20:03:10.481Z,1.50
2018-02-23T20:05:38.017Z,1.50
2018-02-23T20:08:05.513Z,1.50
2018-02-23T20:10:33.040Z,1.50
2018-02-23T20:13:00.545Z,1.40
2018-02-23T20:15:28.046Z,1.40
2018-02-23T20:17:55.614Z,1.40
2018-02-23T20:20:23.103Z,1.30
2018-02-23T20:22:50.638Z,1.30
2018-02-23T20:25:18.150Z,1.20
2018-02-23T20:27:45.682Z,1.30
2018-02-23T20:30:13.185Z,1.30
2018-02-23T20:32:41.489Z,1.30
2018-02-23T20:35:09.014Z,1.30
2018-02-23T20:37:36.681Z,1.30
2018-02-23T20:40:04.279Z,1.30
2018-02-23T20:42:31.875Z,1.30
2018-02-23T20:44:59.400Z,1.30
2018-02-23T20:47:26.935Z,1.30
2018-02-23T20:49:54.513Z,1.20
2018-02-23T20:52:22.201Z,1.20
2018-02-23T20:54:49.742Z,1.10
2018-02-23T20:57:17.347Z,1.10
2018-02-23T20:59:44.902Z,1.10
2018-02-23T21:02:12.492Z,1.20
2018-02-23T21:04:40.054Z,1.10
2018-02-23T21:07:07.617Z,1.10
2018-02-23T21:09:35.190Z,1.10
2018-02-23T21:12:02.743Z,1.00
2018-02-23T21:14:30.288Z,1.10
2018-02-23T21:17:00.549Z,1.00
2018-02-23T21:19:28.096Z,0.90
2018-02-23T21:21:56.453Z,1.00
2018-02-23T21:24:24.978Z,0.90
2018-02-23T21:26:53.319Z,1.00
2018-02-23T21:29:20.863Z,0.90
2018-02-23T21:31:48.465Z,0.90
2018-02-23T21:34:16.050Z,0.80
2018-02-23T21:36:43.638Z,0.90
2018-02-23T21:39:11.171Z,0.80
2018-02-23T21:41:50.458Z,0.80
2018-02-23T21:44:20.034Z,0.80
2018-02-23T21:46:47.627Z,0.80
2018-02-23T21:49:15.153Z,0.70
2018-02-23T21:51:42.708Z,0.70
2018-02-23T21:54:11.075Z,0.70
2018-02-23T21:56:38.632Z,0.70
2018-02-23T21:59:06.172Z,0.70
2018-02-23T22:01:33.743Z,0.70
2018-02-23T22:04:01.268Z,0.60
2018-02-23T22:06:28.853Z,0.60
2018-02-23T22:08:57.152Z,0.50
2018-02-23T22:11:24.711Z,0.50
2018-02-23T22:13:52.999Z,0.50
2018-02-23T22:16:21.327Z,0.50
2018-02-23T22:18:48.894Z,0.40
2018-02-23T22:21:16.450Z,0.50
2018-02-23T22:23:44.748Z,0.30
2018-02-23T22:26:12.321Z,0.20
2018-02-23T22:28:39.854Z,0.20
2018-02-23T22:31:07.402Z,0.20
2018-02-23T22:33:34.949Z,0.20
2018-02-23T22:36:02.497Z,0.20
2018-02-23T22:38:30.829Z,0.30
2018-02-23T22:40:58.366Z,0.20
2018-02-23T22:43:25.934Z,0.20
2018-02-23T22:45:53.483Z,0.20
2018-02-23T22:48:21.018Z,0.20
2018-02-23T22:50:48.525Z,0.20
2018-02-23T22:53:16.849Z,0.20
2018-02-23T22:55:44.396Z,0.10
2018-02-23T22:58:11.932Z,0.20
2018-02-23T23:00:43.731Z,0.20
2018-02-23T23:03:12.085Z,0.10
2018-02-23T23:05:39.623Z,0.00
2018-02-23T23:08:07.165Z,0.10
2018-02-23T23:10:35.469Z,0.00
2018-02-23T23:13:03.044Z,-0.10
2018-02-23T23:15:30.588Z,0.00
2018-02-23T23:17:58.915Z,0.00
2018-02-23T23:20:26.454Z,-0.10
2018-02-23T23:22:54.760Z,-0.10
2018-02-23T23:28:19.297Z,-0.20
2018-02-23T23:30:46.825Z,-0.20
2018-02-23T23:33:14.374Z,-0.10
2018-02-23T23:35:41.907Z,-0.20
2018-02-23T23:38:10.214Z,-0.10
2018-02-23T23:40:37.745Z,-0.10
2018-02-23T23:43:05.330Z,-0.10
2018-02-23T23:45:33.627Z,0.00
2018-02-23T23:48:01.175Z,-0.10
2018-02-23T23:50:28.714Z,0.00
2018-02-23T23:52:56.279Z,-0.10
2018-02-23T23:55:23.814Z,-0.10
2018-02-23T23:57:51.348Z,-0.20
